Time;durP1;ratioP1;P1;durP2;ratioP2;P2;SDS_P1;SDS_P2;PMS_P1;PMS_P2;Temp;Humidity;BMP_temperature;BMP_pressure;BME280_temperature;BME280_humidity;BME280_pressure;Samples;Min_cycle;Max_cycle;Signal;HPM_P1;HPM_P2
2021/12/01 00:01:22;;;;;;;;;19.40;15.00;;;;;2.71;100.00;98456.38;6308814;20;2823552;-48
2021/12/01 00:03:52;;;;;;;;;15.20;13.80;;;;;2.57;100.00;98461.50;6310045;20;2811738;-48
2021/12/01 00:06:21;;;;;;;;;17.67;17.00;;;;;2.69;100.00;98470.66;6286733;20;3559617;-45
2021/12/01 00:08:49;;;;;;;;;18.00;16.50;;;;;2.74;100.00;98472.16;6320127;20;2826680;-48
2021/12/01 00:11:17;;;;;;;;;18.00;16.00;;;;;2.83;100.00;98469.03;6283322;20;3553353;-45
2021/12/01 00:13:46;;;;;;;;;18.00;14.00;;;;;2.76;100.00;98475.56;6315851;20;3545155;-46
2021/12/01 00:16:15;;;;;;;;;17.67;16.00;;;;;2.75;100.00;98492.41;6315260;20;3560734;-48
2021/12/01 00:18:44;;;;;;;;;23.00;15.00;;;;;2.82;100.00;98498.28;6316828;20;3574877;-45
2021/12/01 00:21:13;;;;;;;;;18.00;15.67;;;;;2.84;100.00;98491.97;6318027;20;3554550;-49
2021/12/01 00:23:41;;;;;;;;;20.33;16.33;;;;;2.79;100.00;98507.25;6287475;20;3573166;-45
2021/12/01 00:26:11;;;;;;;;;15.00;14.33;;;;;2.82;100.00;98499.13;6317491;20;3539808;-46
2021/12/01 00:28:40;;;;;;;;;18.67;16.00;;;;;2.76;100.00;98498.56;6284515;20;3564819;-46
2021/12/01 00:31:08;;;;;;;;;24.50;21.00;;;;;2.98;100.00;98504.53;6312417;20;2493992;-47
2021/12/01 00:33:37;;;;;;;;;17.00;15.67;;;;;2.82;100.00;98499.13;6294945;20;3552311;-46
2021/12/01 00:36:07;;;;;;;;;16.00;14.67;;;;;2.88;100.00;98492.66;6284493;20;3543059;-46
2021/12/01 00:38:35;;;;;;;;;18.00;18.00;;;;;2.96;100.00;98500.25;6310849;20;2835662;-46
2021/12/01 00:41:06;;;;;;;;;27.67;19.33;;;;;2.83;100.00;98495.53;6283968;20;3567044;-46
2021/12/01 00:43:39;;;;;;;;;19.00;16.33;;;;;2.81;100.00;98484.16;6279968;20;3569005;-49
2021/12/01 00:46:35;;;;;;;;;19.50;19.00;;;;;2.68;100.00;98487.47;6311874;20;2813794;-47
2021/12/01 00:49:04;;;;;;;;;29.67;18.67;;;;;2.67;100.00;98485.78;6280334;20;3581663;-45
2021/12/01 00:51:33;;;;;;;;;18.67;18.67;;;;;2.77;100.00;98485.25;6283517;20;3552490;-47
2021/12/01 00:54:01;;;;;;;;;20.00;16.00;;;;;2.71;100.00;98495.28;6313659;20;2823347;-46
2021/12/01 00:56:29;;;;;;;;;24.50;20.50;;;;;2.73;100.00;98496.91;6279528;20;2826437;-47
2021/12/01 00:58:57;;;;;;;;;25.00;19.67;;;;;2.74;100.00;98501.31;6281532;20;3553345;-46
2021/12/01 01:01:26;;;;;;;;;16.00;13.67;;;;;2.65;100.00;98504.41;6312423;20;3556498;-47
2021/12/01 01:03:54;;;;;;;;;27.50;22.50;;;;;2.91;100.00;98507.56;6312086;20;2500269;-46
2021/12/01 01:06:22;;;;;;;;;21.00;21.00;;;;;2.88;100.00;98518.31;6279816;20;2500736;-45
2021/12/01 01:08:51;;;;;;;;;31.50;23.50;;;;;2.76;100.00;98520.63;6278595;20;2858578;-46
2021/12/01 01:16:53;;;;;;;;;18.67;13.33;;;;;2.92;100.00;98541.09;6280512;20;3547176;-49
2021/12/01 01:19:22;;;;;;;;;21.33;17.33;;;;;3.19;100.00;98545.03;6310632;20;3554438;-45
2021/12/01 01:21:51;;;;;;;;;17.00;16.00;;;;;2.99;100.00;98542.50;6312898;20;2779559;-46
2021/12/01 01:24:22;;;;;;;;;11.00;11.00;;;;;3.24;100.00;98548.31;6297784;20;1819101;-46
2021/12/01 01:26:51;;;;;;;;;15.67;14.00;;;;;2.93;100.00;98548.13;6311775;20;2818098;-45
2021/12/01 01:29:21;;;;;;;;;16.00;10.50;;;;;2.94;100.00;98545.38;6309937;20;2790051;-45
2021/12/01 01:31:58;;;;;;;;;16.00;12.00;;;;;2.90;100.00;98537.63;6282851;20;2785756;-46
2021/12/01 01:34:27;;;;;;;;;13.20;9.80;;;;;3.03;100.00;98550.25;6307627;20;2789848;-46
2021/12/01 01:36:55;;;;;;;;;13.00;10.00;;;;;3.15;100.00;98551.41;6278693;20;2789971;-45
2021/12/01 01:39:23;;;;;;;;;12.00;12.00;;;;;3.06;100.00;98543.94;6278887;20;2789999;-47
2021/12/01 01:41:52;;;;;;;;;17.50;12.00;;;;;2.99;100.00;98532.75;6280389;20;2800647;-45
2021/12/01 01:44:22;;;;;;;;;15.40;11.80;;;;;3.10;100.00;98518.97;6307666;20;2788836;-45
2021/12/01 01:46:52;;;;;;;;;21.40;16.60;;;;;3.05;100.00;98526.28;6305196;20;2819169;-47
2021/12/01 01:49:23;;;;;;;;;12.00;9.00;;;;;3.19;100.00;98529.13;6278791;20;2753372;-47
2021/12/01 01:51:51;;;;;;;;;11.00;11.00;;;;;3.13;100.00;98537.38;6279610;20;2781643;-45
2021/12/01 01:54:19;;;;;;;;;20.00;14.50;;;;;3.26;100.00;98535.81;6279703;20;2818057;-46
2021/12/01 01:56:47;;;;;;;;;9.00;9.00;;;;;3.21;100.00;98542.28;6300890;20;1814863;-49
2021/12/01 01:59:17;;;;;;;;;13.20;12.00;;;;;3.07;100.00;98540.34;6336748;20;2786818;-48
2021/12/01 02:01:46;;;;;;;;;13.50;12.00;;;;;3.15;100.00;98522.25;6278109;20;2792144;-46
2021/12/01 02:04:19;;;;;;;;;15.00;12.00;;;;;3.19;100.00;98523.81;6291510;20;2790906;-49
2021/12/01 02:06:49;;;;;;;;;9.00;9.00;;;;;3.07;100.00;98524.44;6282194;20;2739861;-48
2021/12/01 02:09:23;;;;;;;;;8.00;8.00;;;;;3.28;100.00;98538.41;6296970;20;1818034;-45
2021/12/01 02:11:57;;;;;;;;;18.00;13.00;;;;;3.22;100.00;98534.28;6311674;20;2801430;-50
2021/12/01 02:14:28;;;;;;;;;14.40;10.80;;;;;3.17;100.00;98531.00;6336848;20;2796087;-48
2021/12/01 02:16:59;;;;;;;;;10.00;7.25;;;;;3.22;100.00;98533.41;6300748;20;1814985;-46
2021/12/01 02:19:28;;;;;;;;;10.50;10.00;;;;;3.13;100.00;98533.88;6310958;20;2777368;-46
2021/12/01 02:21:57;;;;;;;;;16.00;11.00;;;;;3.18;100.00;98545.97;6303353;20;2794257;-46
2021/12/01 02:24:29;;;;;;;;;10.57;10.57;;;;;3.20;100.00;98546.75;6320543;20;1812781;-47
2021/12/01 02:26:57;;;;;;;;;12.50;10.00;;;;;3.30;100.00;98547.16;6311422;20;2785721;-45
2021/12/01 02:29:27;;;;;;;;;7.00;7.00;;;;;3.25;100.00;98542.06;6296779;20;1814924;-46
2021/12/01 02:31:55;;;;;;;;;5.00;5.00;;;;;3.25;100.00;98538.56;6312812;20;2755583;-46
2021/12/01 02:34:26;;;;;;;;;7.75;7.75;;;;;3.18;100.00;98547.75;6328074;20;1812863;-45
2021/12/01 02:36:59;;;;;;;;;7.00;7.00;;;;;3.16;100.00;98555.81;6309726;20;2736763;-50
2021/12/01 02:39:28;;;;;;;;;8.50;8.00;;;;;3.24;100.00;98564.25;6287606;20;2740955;-46
2021/12/01 02:42:07;;;;;;;;;10.00;9.00;;;;;3.15;100.00;98564.69;6319776;20;2648903;-47
2021/12/01 02:44:37;;;;;;;;;10.40;9.40;;;;;3.25;100.00;98565.94;6343419;20;2775268;-46
2021/12/01 02:47:05;;;;;;;;;9.00;6.00;;;;;3.44;100.00;98567.66;6285168;20;2750298;-45
2021/12/01 02:49:35;;;;;;;;;8.83;7.00;;;;;3.34;100.00;98582.34;6354966;20;1808602;-45
2021/12/01 02:52:04;;;;;;;;;7.00;7.00;;;;;3.45;100.00;98587.94;6287185;20;3455709;-45
2021/12/01 02:54:32;;;;;;;;;6.00;6.00;;;;;3.51;100.00;98585.00;6334226;20;1821692;-46
2021/12/01 02:57:01;;;;;;;;;5.75;5.75;;;;;3.60;100.00;98587.19;6331805;20;1823301;-45
2021/12/01 02:59:29;;;;;;;;;8.50;7.00;;;;;3.62;100.00;98595.94;6316151;20;2743001;-46
2021/12/01 03:01:57;;;;;;;;;5.00;5.00;;;;;3.80;100.00;98593.28;6315200;20;2756551;-46
2021/12/01 03:04:27;;;;;;;;;7.25;5.00;;;;;3.89;100.00;98593.63;6333705;20;1815970;-45
2021/12/01 03:06:57;;;;;;;;;5.25;5.00;;;;;4.08;100.00;98598.00;6330899;20;1823324;-46
2021/12/01 03:09:27;;;;;;;;;5.00;5.00;;;;;4.30;100.00;98595.91;6331785;20;1838881;-46
2021/12/01 03:11:56;;;;;;;;;5.75;5.00;;;;;3.92;100.00;98601.47;6333563;20;1818635;-45
2021/12/01 03:14:25;;;;;;;;;4.00;4.00;;;;;4.34;100.00;98586.81;6336754;20;1812621;-46
2021/12/01 03:16:54;;;;;;;;;3.67;3.67;;;;;4.34;100.00;98599.25;6338731;20;1814515;-46
2021/12/01 03:19:23;;;;;;;;;3.00;3.00;;;;;4.41;100.00;98611.28;6331969;20;1825522;-45
2021/12/01 03:21:51;;;;;;;;;6.00;3.00;;;;;4.18;100.00;98615.16;6316712;20;2757566;-45
2021/12/01 03:24:19;;;;;;;;;3.00;3.00;;;;;4.33;100.00;98609.03;6306069;20;1818003;-46
2021/12/01 03:26:48;;;;;;;;;3.00;3.00;;;;;4.25;100.00;98619.22;6335388;20;1812904;-45
2021/12/01 03:29:16;;;;;;;;;2.75;2.75;;;;;4.21;100.00;98624.78;6333220;20;1813283;-47
2021/12/01 03:31:45;;;;;;;;;6.00;5.00;;;;;4.13;100.00;98620.75;6334351;20;1817025;-46
2021/12/01 03:34:13;;;;;;;;;1.00;1.00;;;;;4.25;100.00;98616.56;6318210;20;3450338;-46
2021/12/01 03:36:41;;;;;;;;;3.00;3.00;;;;;4.25;100.00;98621.03;6318403;20;2742982;-47
2021/12/01 03:39:09;;;;;;;;;6.50;6.50;;;;;4.31;100.00;98615.38;6315493;20;2752322;-45
2021/12/01 03:41:37;;;;;;;;;5.00;5.00;;;;;4.48;100.00;98612.69;6302738;20;1816323;-46
2021/12/01 03:44:06;;;;;;;;;4.00;3.00;;;;;4.32;100.00;98612.66;6318618;20;2752393;-47
2021/12/01 03:46:35;;;;;;;;;2.00;2.00;;;;;4.21;100.00;98620.31;6331104;20;1813443;-46
2021/12/01 03:49:04;;;;;;;;;1.75;0.25;;;;;4.15;100.00;98620.63;6332698;20;1805511;-44
2021/12/01 03:51:32;;;;;;;;;2.75;2.75;;;;;4.37;100.00;98613.25;6332552;20;1813952;-46
2021/12/01 03:54:02;;;;;;;;;2.25;2.25;;;;;4.30;100.00;98601.25;6334203;20;1815459;-46
2021/12/01 03:56:30;;;;;;;;;3.00;3.00;;;;;4.29;100.00;98612.81;6317553;20;3472560;-47
2021/12/01 03:58:59;;;;;;;;;5.00;5.00;;;;;4.07;100.00;98615.72;6300293;20;1819163;-46
2021/12/01 04:01:27;;;;;;;;;2.75;2.50;;;;;4.19;100.00;98611.59;6334174;20;1815375;-46
2021/12/01 04:03:58;;;;;;;;;3.50;2.25;;;;;4.16;100.00;98614.38;6333728;20;1811547;-50
2021/12/01 04:06:27;;;;;;;;;2.00;2.00;;;;;4.22;100.00;98618.53;6315680;20;2749272;-46
2021/12/01 04:08:57;;;;;;;;;5.00;2.25;;;;;4.32;100.00;98630.41;6301060;20;1821199;-46
2021/12/01 04:11:25;;;;;;;;;2.00;1.25;;;;;4.28;100.00;98636.81;6334346;20;1807329;-45
2021/12/01 04:13:56;;;;;;;;;3.00;2.00;;;;;4.36;100.00;98626.63;6334465;20;1803420;-47
2021/12/01 04:16:25;;;;;;;;;2.50;2.50;;;;;4.39;100.00;98642.41;6330924;20;1819115;-45
2021/12/01 04:18:53;;;;;;;;;1.00;1.00;;;;;4.56;100.00;98630.88;6315673;20;3436735;-47
2021/12/01 04:21:24;;;;;;;;;2.00;2.00;;;;;4.50;100.00;98642.69;6330410;20;1818981;-47
2021/12/01 04:23:54;;;;;;;;;2.00;2.00;;;;;4.50;100.00;98648.03;6333834;20;1809678;-46
2021/12/01 04:26:26;;;;;;;;;1.75;1.00;;;;;4.39;99.78;98642.41;6334111;20;1810275;-46
2021/12/01 04:28:55;;;;;;;;;1.67;1.67;;;;;4.60;98.07;98643.03;6314398;20;3445127;-46
2021/12/01 04:31:25;;;;;;;;;2.00;2.00;;;;;4.68;97.48;98647.94;6298700;20;1822283;-48
2021/12/01 04:33:55;;;;;;;;;3.50;3.00;;;;;4.57;97.19;98652.03;6334684;20;1815983;-46
2021/12/01 04:36:33;;;;;;;;;2.00;2.00;;;;;4.61;97.42;98650.94;6333104;20;1815517;-46
2021/12/01 04:39:07;;;;;;;;;3.00;2.75;;;;;4.61;97.25;98648.28;6330500;20;1822259;-46
2021/12/01 04:41:40;;;;;;;;;5.75;5.75;;;;;4.70;95.90;98644.25;6330177;20;1818525;-47
2021/12/01 04:44:11;;;;;;;;;2.50;2.50;;;;;4.76;96.08;98643.06;6332873;20;1820653;-45
2021/12/01 04:46:45;;;;;;;;;1.50;1.00;;;;;4.61;95.53;98645.63;6333949;20;1804550;-45
2021/12/01 04:49:21;;;;;;;;;1.50;1.50;;;;;4.56;95.90;98658.31;6332093;20;1816096;-45
2021/12/01 04:51:55;;;;;;;;;4.25;2.00;;;;;4.68;95.95;98656.78;6332073;20;1816085;-45
2021/12/01 04:54:25;;;;;;;;;1.67;1.67;;;;;4.73;95.00;98665.38;6314978;20;3438904;-46
2021/12/01 04:56:55;;;;;;;;;7.00;2.00;;;;;4.64;95.12;98665.03;6327028;20;1808633;-48
2021/12/01 04:59:25;;;;;;;;;1.00;1.00;;;;;4.82;95.66;98662.22;6331267;20;1806552;-50
2021/12/01 05:01:54;;;;;;;;;1.33;1.33;;;;;4.51;95.59;98662.16;6312584;20;3441012;-46
2021/12/01 05:04:24;;;;;;;;;0.00;0.00;;;;;4.61;95.35;98664.25;6284600;20;3443993;-49
2021/12/01 05:06:52;;;;;;;;;1.25;1.00;;;;;4.76;95.28;98674.97;6299265;20;1809099;-46
2021/12/01 05:09:21;;;;;;;;;2.25;2.00;;;;;4.86;94.89;98675.34;6332253;20;1809656;-47
2021/12/01 05:11:50;;;;;;;;;5.50;3.50;;;;;4.52;95.43;98682.47;6329703;20;1823290;-46
2021/12/01 05:14:18;;;;;;;;;3.00;3.00;;;;;4.73;94.03;98697.28;6315502;20;2739850;-45
2021/12/01 05:16:47;;;;;;;;;4.50;4.50;;;;;4.63;95.15;98706.69;6333072;20;1823290;-48
2021/12/01 05:19:17;;;;;;;;;6.75;4.00;;;;;4.61;95.07;98698.81;6330905;20;1807584;-45
2021/12/01 05:21:45;;;;;;;;;8.00;5.75;;;;;4.52;95.57;98704.59;6331401;20;1818070;-45
2021/12/01 05:24:14;;;;;;;;;6.25;5.25;;;;;4.46;96.09;98702.25;6333962;20;1816994;-44
2021/12/01 05:26:42;;;;;;;;;6.50;5.00;;;;;4.44;96.57;98709.44;6314398;20;2748151;-45
2021/12/01 05:29:10;;;;;;;;;10.00;8.00;;;;;4.26;97.15;98705.94;6280647;20;2763778;-45
2021/12/01 05:31:39;;;;;;;;;7.00;5.67;;;;;4.36;96.79;98709.00;6337360;20;1823298;-45
2021/12/01 05:34:08;;;;;;;;;4.00;3.00;;;;;4.35;96.98;98713.47;6329963;20;1813846;-46
2021/12/01 05:36:36;;;;;;;;;4.00;3.50;;;;;4.31;97.59;98726.97;6331054;20;1807642;-45
2021/12/01 05:39:05;;;;;;;;;8.25;6.25;;;;;4.22;97.61;98732.78;6325765;20;1818075;-46
2021/12/01 05:41:35;;;;;;;;;6.67;6.67;;;;;4.41;98.75;98736.19;6356578;20;1797236;-45
2021/12/01 05:44:05;;;;;;;;;10.00;6.00;;;;;4.21;98.93;98739.84;6302833;20;1812867;-47
2021/12/01 05:46:33;;;;;;;;;12.00;10.00;;;;;4.29;98.55;98742.13;6310005;20;2766946;-45
2021/12/01 05:49:05;;;;;;;;;13.60;11.00;;;;;4.41;99.00;98738.84;6305352;20;2794142;-45
2021/12/01 05:51:33;;;;;;;;;10.00;10.00;;;;;4.35;98.33;98744.50;6281856;20;2773156;-45
2021/12/01 05:54:04;;;;;;;;;13.40;10.80;;;;;4.22;98.71;98748.72;6308994;20;2796105;-47
2021/12/01 05:56:32;;;;;;;;;14.50;14.00;;;;;4.18;99.79;98754.16;6281299;20;2800385;-47
2021/12/01 05:59:00;;;;;;;;;9.25;8.00;;;;;4.10;99.85;98763.47;6300270;20;1820232;-46
2021/12/01 06:01:29;;;;;;;;;10.50;7.00;;;;;4.33;98.83;98764.97;6326360;20;1807656;-45
2021/12/01 06:03:57;;;;;;;;;6.00;6.00;;;;;4.21;99.29;98765.56;6315380;20;2745034;-46
2021/12/01 06:06:25;;;;;;;;;5.00;5.00;;;;;4.17;99.87;98780.81;6275713;20;2751350;-45
2021/12/01 06:08:52;;;;;;;;;14.50;13.50;;;;;4.06;100.00;98786.66;6274996;20;2791911;-45
2021/12/01 06:11:24;;;;;;;;;11.50;11.00;;;;;4.06;100.00;98799.94;6276984;20;2773360;-45
2021/12/01 06:13:54;;;;;;;;;4.50;4.50;;;;;4.03;100.00;98815.16;6302624;20;1822238;-45
2021/12/01 06:16:24;;;;;;;;;10.50;5.50;;;;;4.07;100.00;98817.59;6332855;20;1814683;-46
2021/12/01 06:18:53;;;;;;;;;5.50;5.25;;;;;4.15;100.00;98836.66;6334795;20;1814995;-46
2021/12/01 06:21:21;;;;;;;;;9.00;5.50;;;;;3.94;100.00;98841.22;6317573;20;2747126;-45
2021/12/01 06:23:49;;;;;;;;;6.00;6.00;;;;;3.97;100.00;98841.06;6287316;20;2747279;-45
2021/12/01 06:26:17;;;;;;;;;8.00;6.00;;;;;4.05;100.00;98853.97;6319429;20;2752418;-45
2021/12/01 06:28:45;;;;;;;;;3.00;3.00;;;;;4.06;100.00;98846.91;6335884;20;1823300;-46
2021/12/01 06:31:14;;;;;;;;;7.00;3.00;;;;;4.23;100.00;98843.41;6333915;20;1809714;-47
2021/12/01 06:33:43;;;;;;;;;4.00;4.00;;;;;4.32;100.00;98853.59;6335840;20;1811858;-45
2021/12/01 06:36:11;;;;;;;;;3.00;3.00;;;;;4.21;100.00;98861.22;6337060;20;1815469;-46
2021/12/01 06:38:41;;;;;;;;;3.50;3.00;;;;;4.57;100.00;98862.03;6336207;20;1812908;-45
2021/12/01 06:41:10;;;;;;;;;6.00;4.00;;;;;4.75;100.00;98862.91;6338175;20;1824431;-45
2021/12/01 06:43:38;;;;;;;;;6.00;6.00;;;;;4.77;99.39;98852.22;6318895;20;2749231;-46
2021/12/01 06:46:11;;;;;;;;;6.25;6.25;;;;;4.82;99.50;98859.00;6304799;20;1816008;-45
2021/12/01 06:48:39;;;;;;;;;5.00;5.00;;;;;4.81;98.87;98846.63;6316677;20;2754429;-45
2021/12/01 06:51:07;;;;;;;;;10.50;8.00;;;;;4.92;98.85;98851.41;6287540;20;2763818;-45
2021/12/01 06:53:35;;;;;;;;;7.50;6.75;;;;;4.88;98.81;98856.97;6303905;20;1805218;-45
2021/12/01 06:56:04;;;;;;;;;5.00;5.00;;;;;4.72;99.20;98849.78;6317257;20;2749280;-45
2021/12/01 06:58:31;;;;;;;;;14.50;9.00;;;;;4.91;98.79;98864.78;6315310;20;2760796;-44
2021/12/01 07:00:59;;;;;;;;;7.00;7.00;;;;;4.82;99.09;98859.00;6283888;20;2741984;-46
2021/12/01 07:03:27;;;;;;;;;11.00;10.00;;;;;4.84;99.11;98853.59;6281925;20;2777352;-45
2021/12/01 07:05:56;;;;;;;;;6.00;6.00;;;;;4.88;98.88;98865.81;6304341;20;1815960;-46
2021/12/01 07:08:24;;;;;;;;;14.00;10.00;;;;;4.72;99.57;98872.84;6314056;20;2774222;-44
2021/12/01 07:10:52;;;;;;;;;11.00;11.00;;;;;4.78;100.00;98875.19;6282792;20;2777320;-45
2021/12/01 07:13:21;;;;;;;;;14.25;9.00;;;;;4.76;100.00;98877.91;6303262;20;1824328;-48
2021/12/01 07:15:50;;;;;;;;;8.25;8.25;;;;;4.80;100.00;98879.50;6333833;20;1808799;-45
2021/12/01 07:18:18;;;;;;;;;12.50;11.00;;;;;4.83;100.00;98878.47;6314696;20;2792991;-46
2021/12/01 07:20:47;;;;;;;;;11.00;11.00;;;;;4.82;100.00;98877.63;6280319;20;2785729;-45
2021/12/01 07:23:15;;;;;;;;;9.00;8.50;;;;;4.73;100.00;98875.41;6303963;20;1813273;-46
2021/12/01 07:26:01;;;;;;;;;12.50;8.00;;;;;4.64;100.00;98875.91;6314846;20;2764899;-48
2021/12/01 07:28:29;;;;;;;;;9.50;9.00;;;;;4.74;100.00;98876.28;6285981;20;2753486;-45
2021/12/01 07:30:58;;;;;;;;;10.50;10.00;;;;;4.65;100.00;98874.09;6281302;20;2766954;-47
2021/12/01 07:33:30;;;;;;;;;11.00;10.00;;;;;4.84;100.00;98882.84;6285596;20;2783574;-46
2021/12/01 07:36:01;;;;;;;;;12.33;9.33;;;;;5.32;99.74;98878.59;6327743;20;1814982;-46
2021/12/01 07:38:29;;;;;;;;;18.50;11.00;;;;;5.52;98.23;98887.31;6280645;20;2783595;-45
2021/12/01 07:40:57;;;;;;;;;13.00;11.00;;;;;5.44;98.74;98885.91;6283409;20;2774271;-46
2021/12/01 07:43:24;;;;;;;;;13.00;11.00;;;;;5.51;97.87;98891.78;6282614;20;2787784;-45
2021/12/01 07:45:52;;;;;;;;;17.50;12.50;;;;;5.39;98.22;98881.78;6284283;20;2796186;-48
2021/12/01 07:48:23;;;;;;;;;9.00;7.67;;;;;5.48;98.43;98884.81;6324935;20;1812822;-46
2021/12/01 07:50:55;;;;;;;;;7.67;7.17;;;;;5.32;98.90;98875.03;6327837;20;1808619;-48
2021/12/01 07:53:24;;;;;;;;;7.00;7.00;;;;;5.33;98.57;98872.31;6286673;20;2752377;-45
2021/12/01 07:55:51;;;;;;;;;13.00;11.00;;;;;5.22;98.66;98869.38;6282273;20;2794002;-45
2021/12/01 07:58:21;;;;;;;;;15.20;10.00;;;;;5.30;98.66;98866.31;6308056;20;2794102;-45
2021/12/01 08:00:51;;;;;;;;;11.20;10.80;;;;;5.36;98.10;98850.84;6309162;20;2789834;-45
2021/12/01 08:03:21;;;;;;;;;43.67;34.00;;;;;5.44;97.79;98855.78;6282621;20;2858632;-44
2021/12/01 08:05:50;;;;;;;;;10.00;10.00;;;;;5.39;97.45;98847.16;6317152;20;2766935;-45
2021/12/01 08:08:19;;;;;;;;;11.60;10.00;;;;;5.41;97.98;98856.78;6307176;20;2790883;-44
2021/12/01 08:10:47;;;;;;;;;10.50;8.00;;;;;5.45;98.53;98866.34;6285829;20;2763901;-48
2021/12/01 08:13:15;;;;;;;;;11.00;11.00;;;;;5.41;98.73;98859.47;6284004;20;2792153;-46
2021/12/01 08:15:50;;;;;;;;;13.00;11.00;;;;;5.47;97.82;98859.13;6282253;20;2789823;-45
2021/12/01 08:18:20;;;;;;;;;11.00;10.20;;;;;5.35;98.74;98843.81;6304513;20;2760844;-45
2021/12/01 08:20:48;;;;;;;;;8.00;8.00;;;;;5.44;98.79;98845.97;6283656;20;2739842;-45
2021/12/01 08:23:16;;;;;;;;;11.50;9.00;;;;;5.46;98.55;98846.75;6283416;20;2776357;-46
2021/12/01 08:25:45;;;;;;;;;18.00;12.00;;;;;5.41;99.21;98843.47;6283053;20;2799643;-44
2021/12/01 08:28:16;;;;;;;;;10.20;9.00;;;;;5.32;100.00;98859.06;6327586;20;1812399;-45
2021/12/01 08:30:44;;;;;;;;;11.00;11.00;;;;;5.42;100.00;98866.50;6281080;20;2784659;-46
2021/12/01 08:33:12;;;;;;;;;11.67;10.67;;;;;5.44;100.00;98869.06;6281069;20;2786063;-45
2021/12/01 08:35:43;;;;;;;;;15.40;9.40;;;;;5.32;99.61;98875.94;6336852;20;2792961;-46
2021/12/01 08:38:11;;;;;;;;;13.50;12.00;;;;;5.35;99.99;98875.75;6283565;20;2794025;-45
2021/12/01 08:40:40;;;;;;;;;15.00;12.50;;;;;5.38;99.47;98880.91;6283332;20;2799231;-45
2021/12/01 08:43:10;;;;;;;;;12.50;12.50;;;;;5.38;98.86;98867.63;6284090;20;2790182;-45
2021/12/01 08:45:38;;;;;;;;;13.00;11.00;;;;;5.37;98.87;98873.00;6283103;20;2781584;-45
2021/12/01 08:48:08;;;;;;;;;14.60;12.00;;;;;5.36;99.24;98869.50;6302939;20;2791921;-46
2021/12/01 08:50:36;;;;;;;;;12.00;12.00;;;;;5.42;98.89;98873.63;6280847;20;2798206;-46
2021/12/01 08:53:04;;;;;;;;;14.00;8.00;;;;;5.45;98.09;98870.78;6282127;20;2756511;-45
2021/12/01 08:55:32;;;;;;;;;15.00;12.00;;;;;5.48;98.88;98871.50;6284347;20;2806508;-46
2021/12/01 08:58:16;;;;;;;;;17.00;12.00;;;;;5.54;98.32;98858.81;6282383;20;2786750;-47
2021/12/01 09:00:48;;;;;;;;;15.80;15.20;;;;;5.52;97.90;98855.34;6307521;20;2818083;-45
2021/12/01 09:03:19;;;;;;;;;21.50;19.00;;;;;5.59;98.30;98846.94;6283658;20;2829487;-46
2021/12/01 09:05:51;;;;;;;;;13.33;13.00;;;;;5.70;97.66;98849.03;6278814;20;3528587;-47
2021/12/01 09:08:22;;;;;;;;;15.00;12.67;;;;;5.70;98.10;98849.88;6312020;20;2800407;-45
2021/12/01 09:10:58;;;;;;;;;66.00;49.33;;;;;5.82;97.09;98843.03;6312383;20;3657533;-45
2021/12/01 09:13:30;;;;;;;;;15.50;14.50;;;;;5.66;98.09;98855.44;6313869;20;2816822;-45
2021/12/01 09:16:00;;;;;;;;;50.67;39.67;;;;;5.80;97.94;98849.38;6280366;20;3613780;-45
2021/12/01 09:18:32;;;;;;;;;51.33;41.33;;;;;5.84;97.66;98846.44;6311011;20;2850391;-45
2021/12/01 09:21:04;;;;;;;;;52.00;36.33;;;;;5.98;98.37;98844.84;6312430;20;3591886;-46
2021/12/01 09:23:32;;;;;;;;;25.50;20.50;;;;;6.03;98.55;98849.00;6281967;20;2840871;-45
2021/12/01 09:26:00;;;;;;;;;28.00;26.00;;;;;6.09;98.06;98847.78;6274703;20;2500534;-45
2021/12/01 09:28:29;;;;;;;;;16.67;14.67;;;;;6.20;97.76;98850.69;6281132;20;3545035;-45
2021/12/01 09:30:58;;;;;;;;;23.00;19.00;;;;;6.26;97.72;98847.66;6307157;20;2494010;-45
2021/12/01 09:33:29;;;;;;;;;20.67;17.33;;;;;6.37;97.37;98850.59;6281683;20;3562848;-45
2021/12/01 09:35:58;;;;;;;;;18.00;14.67;;;;;6.29;97.58;98846.63;6311254;20;3551335;-45
2021/12/01 09:38:28;;;;;;;;;14.60;9.00;;;;;6.40;98.18;98838.00;6304862;20;2777360;-46
2021/12/01 09:40:57;;;;;;;;;11.00;11.00;;;;;6.50;97.07;98839.19;6281401;20;2783662;-48
2021/12/01 09:43:31;;;;;;;;;11.00;11.00;;;;;6.41;96.91;98842.41;6306295;20;2792041;-45
2021/12/01 09:46:08;;;;;;;;;10.00;10.00;;;;;6.55;96.52;98837.97;6282875;20;2771082;-44
2021/12/01 09:48:41;;;;;;;;;14.00;12.00;;;;;6.54;95.81;98836.25;6286106;20;2793583;-45
2021/12/01 09:51:16;;;;;;;;;13.00;8.00;;;;;6.63;95.84;98842.00;6317750;20;2763809;-45
2021/12/01 09:53:46;;;;;;;;;7.00;7.00;;;;;6.72;96.34;98828.13;6295447;20;2630478;-45
2021/12/01 09:56:14;;;;;;;;;17.00;12.00;;;;;6.64;95.37;98838.41;6315876;20;2795097;-45
2021/12/01 09:58:43;;;;;;;;;14.00;10.00;;;;;6.78;95.81;98833.94;6285729;20;2784716;-45
2021/12/01 10:01:19;;;;;;;;;14.60;12.20;;;;;6.65;94.91;98811.63;6310544;20;2801418;-45
2021/12/01 10:03:49;;;;;;;;;18.00;12.00;;;;;6.92;93.72;98805.56;6283531;20;2822184;-45
2021/12/01 10:06:24;;;;;;;;;9.60;9.40;;;;;7.11;92.81;98803.50;6313202;20;2746105;-45
2021/12/01 10:09:00;;;;;;;;;10.00;10.00;;;;;7.21;94.02;98793.09;6315583;20;2775305;-45
2021/12/01 10:11:33;;;;;;;;;15.67;13.33;;;;;6.85;95.89;98788.22;6287794;20;2803505;-47
2021/12/01 10:14:20;;;;;;;;;16.67;13.33;;;;;6.58;96.11;98778.25;6316798;20;2799302;-45
2021/12/01 10:16:54;;;;;;;;;14.67;11.00;;;;;6.76;97.27;98790.47;6313977;20;2827713;-45
2021/12/01 10:19:28;;;;;;;;;11.80;11.80;;;;;6.80;96.81;98778.69;6338131;20;2781622;-45
2021/12/01 10:21:57;;;;;;;;;20.67;17.67;;;;;7.13;97.40;98795.38;6285023;20;3554429;-45
2021/12/01 10:24:32;;;;;;;;;29.33;26.00;;;;;7.23;96.27;98793.88;6314947;20;2853625;-48
2021/12/01 10:27:11;;;;;;;;;20.67;17.00;;;;;7.07;96.25;98791.28;6315895;20;2823160;-47
2021/12/01 10:29:49;;;;;;;;;17.00;15.00;;;;;7.06;95.55;98786.03;6315347;20;3551359;-44
2021/12/01 10:32:19;;;;;;;;;19.50;14.00;;;;;7.13;96.15;98780.22;6283436;20;2817001;-44
2021/12/01 10:34:56;;;;;;;;;12.80;12.60;;;;;7.10;96.00;98779.56;6310510;20;2789936;-45
2021/12/01 10:37:33;;;;;;;;;14.33;12.67;;;;;7.26;96.03;98770.50;6282849;20;3516917;-44
2021/12/01 10:40:08;;;;;;;;;17.00;17.00;;;;;7.17;96.47;98771.09;6317430;20;2812851;-44
2021/12/01 10:42:55;;;;;;;;;12.00;11.00;;;;;7.00;96.79;98761.47;6285065;20;2796133;-44
2021/12/01 10:45:31;;;;;;;;;13.00;10.67;;;;;7.13;98.48;98763.34;6286738;20;2789959;-44
2021/12/01 10:48:00;;;;;;;;;12.00;9.00;;;;;7.08;97.35;98760.97;6318155;20;2760698;-45
2021/12/01 10:50:36;;;;;;;;;9.00;7.00;;;;;7.09;98.64;98761.84;6312642;20;2736754;-45
2021/12/01 10:53:19;;;;;;;;;8.67;8.67;;;;;7.00;98.46;98752.56;6360774;20;1800273;-44
2021/12/01 10:55:52;;;;;;;;;8.00;8.00;;;;;6.99;100.00;98762.41;6287962;20;2744023;-46
2021/12/01 10:58:34;;;;;;;;;9.00;9.00;;;;;6.99;99.51;98753.53;6283532;20;2764825;-46
2021/12/01 11:01:19;;;;;;;;;11.20;9.40;;;;;7.17;98.90;98760.41;6311323;20;2784654;-45
2021/12/01 11:03:51;;;;;;;;;11.29;8.86;;;;;7.30;97.27;98762.31;6327190;20;1802131;-46
2021/12/01 11:06:23;;;;;;;;;12.00;8.00;;;;;7.17;97.16;98754.22;6316337;20;2766952;-46
2021/12/01 11:08:58;;;;;;;;;11.00;10.29;;;;;7.05;96.49;98758.50;6323960;20;1805475;-45
2021/12/01 11:11:51;;;;;;;;;15.40;9.80;;;;;7.14;96.99;98749.94;6339023;20;2790925;-45
2021/12/01 11:14:29;;;;;;;;;11.50;7.50;;;;;7.34;96.05;98750.47;6284714;20;2759689;-45
2021/12/01 11:16:57;;;;;;;;;8.50;8.50;;;;;7.14;95.71;98749.94;6281442;20;2748207;-45
2021/12/01 11:19:33;;;;;;;;;9.00;9.00;;;;;7.13;95.02;98744.66;6283001;20;2746850;-47
2021/12/01 11:22:36;;;;;;;;;8.00;8.00;;;;;7.04;95.20;98738.09;6288512;20;2742936;-45
2021/12/01 11:25:20;;;;;;;;;10.00;6.00;;;;;7.08;93.80;98728.94;6287439;20;2748173;-45
2021/12/01 11:27:48;;;;;;;;;9.00;8.00;;;;;7.09;93.66;98736.00;6285933;20;2725465;-45
2021/12/01 11:30:17;;;;;;;;;8.50;8.50;;;;;6.99;93.95;98730.38;6318094;20;2735751;-46
2021/12/01 11:33:05;;;;;;;;;6.00;6.00;;;;;7.04;93.44;98722.09;6286600;20;2748626;-45